TRA48C LGKO-EHAM
Flight info
| Callsign | TRA48C |
|---|---|
| Flight time | N/A |
| Altitude | 36000 |
| Route | LARKI UL609 MES DCT DISOR DCT LONTA/N0455F380 UL608 DOLEV DCT IRDIV DCT PODET DCT SIMBA DCT GASKA DCT MAPOX DCT NORKU |
| Aircraft | B738/M-SDE2E3FGHIRWXY/LB1 |
Departure
| Time | N/A |
|---|---|
| Airport | Kos International Airport "Ippokratis" (LGKO) |
Arrival
| Time | 2026-05-07 20:13 |
|---|---|
| Airport | Amsterdam Airport Schiphol (EHAM) |
| Time | Latitude | Longitude | Altitude | Speed | Heading |
|---|---|---|---|---|---|
| 2026-05-07 19:41 | 51.71679 | 7.45693 | 31484 ft | 388 kts | 303° |
| 2026-05-07 19:41 | 51.73209 | 7.42185 | 31113 ft | 384 kts | 303° |
| 2026-05-07 19:42 | 51.74723 | 7.38710 | 30750 ft | 381 kts | 303° |
| 2026-05-07 19:42 | 51.76241 | 7.35220 | 30388 ft | 379 kts | 303° |
| 2026-05-07 19:42 | 51.77730 | 7.31791 | 30002 ft | 376 kts | 303° |
| 2026-05-07 19:42 | 51.79225 | 7.28345 | 29577 ft | 373 kts | 303° |
| 2026-05-07 19:43 | 51.80719 | 7.24896 | 29206 ft | 368 kts | 303° |
| 2026-05-07 19:43 | 51.82182 | 7.21515 | 28815 ft | 365 kts | 303° |
| 2026-05-07 19:43 | 51.83625 | 7.18177 | 28435 ft | 361 kts | 303° |
| 2026-05-07 19:43 | 51.85038 | 7.14904 | 28072 ft | 357 kts | 303° |
| 2026-05-07 19:44 | 51.86454 | 7.11618 | 27688 ft | 355 kts | 303° |
| 2026-05-07 19:44 | 51.87858 | 7.08356 | 27323 ft | 352 kts | 303° |
| 2026-05-07 19:44 | 51.89249 | 7.05120 | 26959 ft | 349 kts | 303° |
| 2026-05-07 19:44 | 51.90629 | 7.01907 | 26602 ft | 346 kts | 303° |
| 2026-05-07 19:45 | 51.91999 | 6.98711 | 26238 ft | 344 kts | 303° |
| 2026-05-07 19:45 | 51.93356 | 6.95542 | 25890 ft | 342 kts | 303° |
| 2026-05-07 19:45 | 51.94703 | 6.92393 | 25541 ft | 339 kts | 303° |
| 2026-05-07 19:45 | 51.96047 | 6.89248 | 25190 ft | 337 kts | 303° |
| 2026-05-07 19:46 | 51.97377 | 6.86131 | 24840 ft | 336 kts | 303° |
| 2026-05-07 19:46 | 51.98703 | 6.83021 | 24497 ft | 334 kts | 303° |
| 2026-05-07 19:46 | 52.00018 | 6.79931 | 24153 ft | 332 kts | 303° |
| 2026-05-07 19:46 | 52.01330 | 6.76846 | 23806 ft | 331 kts | 303° |
| 2026-05-07 19:47 | 52.02635 | 6.73774 | 23423 ft | 330 kts | 303° |
| 2026-05-07 19:47 | 52.03934 | 6.70710 | 23030 ft | 328 kts | 303° |
| 2026-05-07 19:47 | 52.05223 | 6.67669 | 22666 ft | 326 kts | 303° |
| 2026-05-07 19:47 | 52.06505 | 6.64638 | 22319 ft | 324 kts | 303° |
| 2026-05-07 19:48 | 52.07775 | 6.61634 | 21984 ft | 321 kts | 303° |
| 2026-05-07 19:48 | 52.09033 | 6.58654 | 21643 ft | 319 kts | 303° |
| 2026-05-07 19:48 | 52.10286 | 6.55683 | 21306 ft | 317 kts | 303° |
| 2026-05-07 19:48 | 52.11527 | 6.52736 | 20974 ft | 315 kts | 303° |
| 2026-05-07 19:49 | 52.12761 | 6.49804 | 20641 ft | 314 kts | 303° |
| 2026-05-07 19:49 | 52.13993 | 6.46874 | 20319 ft | 312 kts | 303° |
| 2026-05-07 19:49 | 52.15213 | 6.43966 | 19988 ft | 311 kts | 303° |
| 2026-05-07 19:49 | 52.16430 | 6.41065 | 19659 ft | 309 kts | 303° |
| 2026-05-07 19:50 | 52.17641 | 6.38173 | 19335 ft | 308 kts | 303° |
| 2026-05-07 19:50 | 52.18846 | 6.35292 | 19013 ft | 307 kts | 303° |
| 2026-05-07 19:50 | 52.20047 | 6.32417 | 18689 ft | 307 kts | 303° |
| 2026-05-07 19:50 | 52.21246 | 6.29546 | 18361 ft | 306 kts | 303° |
| 2026-05-07 19:51 | 52.22425 | 6.26719 | 17998 ft | 305 kts | 303° |
| 2026-05-07 19:51 | 52.23627 | 6.23831 | 17643 ft | 304 kts | 303° |
| 2026-05-07 19:51 | 52.24812 | 6.20985 | 17313 ft | 302 kts | 303° |
| 2026-05-07 19:51 | 52.25973 | 6.18191 | 16989 ft | 300 kts | 303° |
| 2026-05-07 19:52 | 52.27141 | 6.15377 | 16675 ft | 299 kts | 303° |
| 2026-05-07 19:52 | 52.28245 | 6.12517 | 16359 ft | 297 kts | 291° |
| 2026-05-07 19:52 | 52.28662 | 6.09241 | 16119 ft | 295 kts | 273° |
| 2026-05-07 19:52 | 52.28775 | 6.05870 | 15881 ft | 300 kts | 272° |
| 2026-05-07 19:53 | 52.28863 | 6.02450 | 15630 ft | 303 kts | 271° |
| 2026-05-07 19:53 | 52.28948 | 5.99006 | 15379 ft | 304 kts | 272° |
| 2026-05-07 19:53 | 52.29037 | 5.95555 | 15133 ft | 304 kts | 272° |
| 2026-05-07 19:53 | 52.29130 | 5.92109 | 14884 ft | 303 kts | 272° |
| 2026-05-07 19:54 | 52.29226 | 5.88673 | 14637 ft | 303 kts | 272° |
| 2026-05-07 19:54 | 52.29324 | 5.85229 | 14394 ft | 302 kts | 272° |
| 2026-05-07 19:54 | 52.29422 | 5.81818 | 14147 ft | 299 kts | 272° |
| 2026-05-07 19:54 | 52.29519 | 5.78444 | 13906 ft | 295 kts | 272° |
| 2026-05-07 19:55 | 52.29615 | 5.75122 | 13633 ft | 292 kts | 272° |
| 2026-05-07 19:55 | 52.29709 | 5.71834 | 13362 ft | 289 kts | 272° |
| 2026-05-07 19:55 | 52.29802 | 5.68571 | 13086 ft | 286 kts | 272° |
| 2026-05-07 19:55 | 52.29894 | 5.65331 | 12820 ft | 284 kts | 272° |
| 2026-05-07 19:56 | 52.29984 | 5.62121 | 12568 ft | 282 kts | 272° |
| 2026-05-07 19:56 | 52.30072 | 5.58930 | 12428 ft | 278 kts | 272° |
| 2026-05-07 19:56 | 52.30158 | 5.55812 | 12476 ft | 274 kts | 272° |
| 2026-05-07 19:56 | 52.30245 | 5.52636 | 12496 ft | 285 kts | 272° |
| 2026-05-07 19:57 | 52.30333 | 5.49373 | 12499 ft | 290 kts | 272° |
| 2026-05-07 19:57 | 52.30421 | 5.46078 | 12483 ft | 289 kts | 272° |
| 2026-05-07 19:57 | 52.30507 | 5.42851 | 12476 ft | 287 kts | 272° |
| 2026-05-07 19:57 | 52.30593 | 5.39595 | 12480 ft | 286 kts | 272° |
| 2026-05-07 19:58 | 52.30678 | 5.36313 | 12477 ft | 285 kts | 272° |
| 2026-05-07 19:58 | 52.30758 | 5.33180 | 12479 ft | 285 kts | 272° |
| 2026-05-07 19:58 | 52.30841 | 5.29915 | 12234 ft | 291 kts | 272° |
| 2026-05-07 19:58 | 52.30924 | 5.26606 | 11984 ft | 292 kts | 272° |
| 2026-05-07 19:59 | 52.31007 | 5.23282 | 11728 ft | 291 kts | 272° |
| 2026-05-07 19:59 | 52.31088 | 5.19998 | 11461 ft | 287 kts | 272° |
| 2026-05-07 19:59 | 52.31167 | 5.16765 | 11211 ft | 284 kts | 272° |
| 2026-05-07 19:59 | 52.31244 | 5.13557 | 10954 ft | 280 kts | 272° |
| 2026-05-07 20:00 | 52.31319 | 5.10395 | 10708 ft | 278 kts | 272° |
| 2026-05-07 20:00 | 52.31393 | 5.07244 | 10459 ft | 277 kts | 271° |
| 2026-05-07 20:00 | 52.31466 | 5.04094 | 10219 ft | 277 kts | 271° |
| 2026-05-07 20:00 | 52.31538 | 5.00961 | 9979 ft | 276 kts | 271° |
| 2026-05-07 20:01 | 52.31609 | 4.97823 | 9709 ft | 276 kts | 271° |
| 2026-05-07 20:01 | 52.31680 | 4.94691 | 9440 ft | 276 kts | 271° |
| 2026-05-07 20:01 | 52.31749 | 4.91558 | 9176 ft | 276 kts | 271° |
| 2026-05-07 20:01 | 52.31817 | 4.88433 | 8915 ft | 275 kts | 271° |
| 2026-05-07 20:02 | 52.31885 | 4.85307 | 8652 ft | 275 kts | 271° |
| 2026-05-07 20:02 | 52.31952 | 4.82183 | 8384 ft | 275 kts | 271° |
| 2026-05-07 20:02 | 52.32018 | 4.79069 | 8136 ft | 274 kts | 271° |
| 2026-05-07 20:02 | 52.32083 | 4.75951 | 7873 ft | 274 kts | 271° |
| 2026-05-07 20:03 | 52.32147 | 4.72855 | 7619 ft | 273 kts | 271° |
| 2026-05-07 20:03 | 52.32209 | 4.69761 | 7369 ft | 272 kts | 270° |
| 2026-05-07 20:03 | 52.32271 | 4.66685 | 7143 ft | 270 kts | 270° |
| 2026-05-07 20:03 | 52.32331 | 4.63661 | 6899 ft | 269 kts | 270° |
| 2026-05-07 20:04 | 52.32391 | 4.60613 | 6650 ft | 267 kts | 270° |
| 2026-05-07 20:04 | 52.32450 | 4.57590 | 6385 ft | 266 kts | 270° |
| 2026-05-07 20:04 | 52.32508 | 4.54583 | 6120 ft | 264 kts | 270° |
| 2026-05-07 20:04 | 52.32564 | 4.51595 | 5857 ft | 262 kts | 270° |
| 2026-05-07 20:05 | 52.32619 | 4.48632 | 5598 ft | 261 kts | 270° |
| 2026-05-07 20:05 | 52.32673 | 4.45666 | 5346 ft | 260 kts | 270° |
| 2026-05-07 20:05 | 52.32719 | 4.42745 | 5286 ft | 255 kts | 267° |
| 2026-05-07 20:05 | 52.32291 | 4.39984 | 5013 ft | 252 kts | 237° |
| 2026-05-07 20:06 | 52.31075 | 4.38000 | 4738 ft | 248 kts | 209° |
| 2026-05-07 20:06 | 52.29475 | 4.37111 | 4587 ft | 240 kts | 188° |
| 2026-05-07 20:06 | 52.28164 | 4.36878 | 4490 ft | 233 kts | 184° |
| 2026-05-07 20:06 | 52.26567 | 4.36696 | 4381 ft | 227 kts | 183° |
| 2026-05-07 20:07 | 52.25024 | 4.36686 | 4262 ft | 219 kts | 167° |
| 2026-05-07 20:07 | 52.23695 | 4.37748 | 4106 ft | 213 kts | 140° |
| 2026-05-07 20:07 | 52.22792 | 4.39614 | 3931 ft | 210 kts | 119° |
| 2026-05-07 20:07 | 52.22148 | 4.41757 | 3812 ft | 209 kts | 115° |
| 2026-05-07 20:08 | 52.21543 | 4.43895 | 3688 ft | 207 kts | 115° |
| 2026-05-07 20:08 | 52.20975 | 4.46020 | 3533 ft | 202 kts | 107° |
| 2026-05-07 20:08 | 52.20848 | 4.48258 | 3319 ft | 195 kts | 91° |
| 2026-05-07 20:08 | 52.20824 | 4.50429 | 3111 ft | 188 kts | 91° |
| 2026-05-07 20:09 | 52.20864 | 4.52514 | 2866 ft | 183 kts | 76° |
| 2026-05-07 20:09 | 52.21457 | 4.54302 | 2682 ft | 176 kts | 58° |
| 2026-05-07 20:09 | 52.22108 | 4.55960 | 2480 ft | 170 kts | 58° |
| 2026-05-07 20:10 | 52.23342 | 4.59140 | 2118 ft | 165 kts | 59° |
| 2026-05-07 20:10 | 52.23943 | 4.60715 | 1896 ft | 163 kts | 59° |
| 2026-05-07 20:10 | 52.24534 | 4.62265 | 1684 ft | 159 kts | 59° |
| 2026-05-07 20:10 | 52.25102 | 4.63754 | 1461 ft | 149 kts | 58° |
| 2026-05-07 20:11 | 52.25505 | 4.64812 | 1316 ft | 145 kts | 59° |
| 2026-05-07 20:11 | 52.25544 | 4.64913 | 1304 ft | 145 kts | 59° |
| 2026-05-07 20:11 | 52.26071 | 4.66292 | 1118 ft | 145 kts | 59° |
| 2026-05-07 20:12 | 52.26604 | 4.67687 | 947 ft | 142 kts | 58° |
| 2026-05-07 20:12 | 52.27132 | 4.69071 | 712 ft | 145 kts | 58° |
| 2026-05-07 20:12 | 52.27488 | 4.70002 | 586 ft | 145 kts | 58° |
| 2026-05-07 20:12 | 52.28017 | 4.71408 | 375 ft | 143 kts | 58° |
| 2026-05-07 20:13 | 52.28554 | 4.72794 | 183 ft | 146 kts | 58° |
| 2026-05-07 20:13 | 52.29085 | 4.74174 | 5 ft | 144 kts | 57° |
| 2026-05-07 20:13 | 52.29569 | 4.75433 | -3 ft | 115 kts | 58° |
| 2026-05-07 20:13 | 52.29886 | 4.76267 | -4 ft | 31 kts | 58° |
| 2026-05-07 20:14 | 52.30010 | 4.76516 | -3 ft | 28 kts | 33° |
| 2026-05-07 20:14 | 52.30158 | 4.76651 | -2 ft | 14 kts | 28° |
| 2026-05-07 20:14 | 52.30241 | 4.76722 | -2 ft | 12 kts | 22° |
| 2026-05-07 20:14 | 52.30295 | 4.76780 | -2 ft | 9 kts | 54° |
| 2026-05-07 20:15 | 52.30329 | 4.76868 | -2 ft | 9 kts | 58° |
| 2026-05-07 20:15 | 52.30365 | 4.76962 | -2 ft | 11 kts | 58° |
| 2026-05-07 20:15 | 52.30415 | 4.77041 | -2 ft | 10 kts | 12° |
| 2026-05-07 20:15 | 52.30479 | 4.76997 | -2 ft | 10 kts | 328° |
| 2026-05-07 20:16 | 52.30538 | 4.76937 | -2 ft | 10 kts | 328° |
| 2026-05-07 20:16 | 52.30591 | 4.76869 | -2 ft | 10 kts | 307° |
| 2026-05-07 20:16 | 52.30620 | 4.76792 | -2 ft | 5 kts | 297° |
| 2026-05-07 20:16 | 52.30617 | 4.76739 | -2 ft | 5 kts | 239° |
| 2026-05-07 20:17 | 52.30590 | 4.76713 | -2 ft | 4 kts | 213° |
| 2026-05-07 20:17 | 52.30575 | 4.76696 | -2 ft | 0 kts | 214° |